KMVY

Martha's Vineyard Airport

Vineyard Haven, Massachusetts, USA
METAR KMVY 221453Z 20006KT 10SM CLR 19/10 A3018 RMK AO2 SLP219 T01890100 50001
Observed Flight Rules
May-22 @ 14:53 UTC (55 minutes ago) Visual Flight Rules
Wind Visibility Clouds
200° at 6 knots 10 miles
  • Clear skies
Temperatures Readings
Current 19°C / 66°F
Dewpoint 10°C / 50°F
Humidity 56%
Altimeter 30.18" Hg
Pressure 1021.9 hPa
Elevation 16
METAR KMVY 221453Z 20006KT 10SM CLR 19/10 A3018 RMK AO2 SLP219 T01890100 50001
Observed Flight Rules
May-22 @ 14:53 UTC
(55 minutes ago)
VFR
Wind Visibility
200° at 6 knots 10 miles
Clouds
  • Clear skies
Temperature Dewpoint
19°C / 66°F 10°C / 50°F
Humidity Altimeter Pressure
56% 30.18" Hg 1021.9 hPa